Estación Meteorológica Peña el Pijo (Robertgarden) [ 02/03/23 03:16:59 CET ]

Fecha Hora Presion(HPa) Temp (°C) Humedad % Rocio (°C) Viento ( m/s) Direccion Lluvia 1Hora(mm) Lluvia 24H(mm) LLuvia Total(mm)
2010-Jun-03 01:01:14 1009.500 17.3 58 8.9         114.99
2010-Jun-03 02:01:17 1009.300 17.8 53 8.0         114.99
2010-Jun-03 03:04:16 1008.700 16.2 60 8.5         114.99
2010-Jun-03 04:01:13 1008.600 16.9 58 8.6         114.99
2010-Jun-03 05:01:14 1008.100 17.3 58 8.9         114.99
2010-Jun-03 06:01:13 1008.200 17.9 61 10.2         114.99
2010-Jun-03 07:01:14 1008.500 17.0 65 10.3         114.99
2010-Jun-03 08:01:14 1008.800 16.5 70 11.1         114.99
2010-Jun-03 09:01:12 1008.800 20.8 66 14.2         114.99
2010-Jun-03 10:01:14 1009.000 23.4 53 13.2         114.99
2010-Jun-03 11:01:16 1008.900 28.3 36 11.7         114.99
2010-Jun-03 12:01:14 1009.200 30.5 28 9.8         114.99
2010-Jun-03 13:01:14 1009.000 32.1 25 9.4         114.99
2010-Jun-03 14:01:14 1008.700 32.0 22 7.5         114.99
2010-Jun-03 15:01:17 1008.500 32.2 24 8.9 1.7 S     114.99
2010-Jun-03 16:01:16 1008.500 31.9 21 6.8         114.99
2010-Jun-03 17:01:16 1008.100 32.3 20 6.5 0.6 S     114.99
2010-Jun-03 18:01:13 1008.200 31.3 20 5.7         114.99
2010-Jun-03 19:01:13 1007.900 30.3 23 6.7         114.99
2010-Jun-03 20:01:16 1008.200 28.2 27 7.2         114.99
2010-Jun-03 21:01:14 1009.800 17.6 71 12.3     5.18 5.18 120.17
2010-Jun-03 22:01:13 1010.500 16.1 81 12.9       5.18 120.17
2010-Jun-03 23:01:13 1011.200 15.6 85 13.1       5.18 120.17

Temperatura Máxima:32°    Temperatura Mínima:15°
Presión Máxima:1011.200 Hpa    Presión Mínima:1007.900 Hpa


Volver